Time;durP1;ratioP1;P1;durP2;ratioP2;P2;SDS_P1;SDS_P2;PMS_P1;PMS_P2;Temp;Humidity;BMP_temperature;BMP_pressure;BME280_temperature;BME280_humidity;BME280_pressure;Samples;Min_cycle;Max_cycle;Signal;HPM_P1;HPM_P2
2024/03/07 00:00:56;;;;;;;;;24.00;18.00;;;;;2.60;72.14;101478.31;112567;244;40099;-51
2024/03/07 00:03:46;;;;;;;;;18.00;14.00;;;;;2.56;72.18;101478.96;112395;244;39469;-52
2024/03/07 00:06:30;;;;;;;;;14.25;12.00;;;;;2.50;72.04;101475.98;112550;244;40162;-49
2024/03/07 00:09:16;;;;;;;;;13.00;10.50;;;;;2.46;72.14;101479.71;112262;242;160671;-49
2024/03/07 00:11:55;;;;;;;;;15.00;12.25;;;;;2.41;72.32;101476.51;112558;244;39746;-50
2024/03/07 00:14:35;;;;;;;;;19.00;15.00;;;;;2.38;72.31;101477.29;112265;242;160863;-49
2024/03/07 00:17:11;;;;;;;;;18.00;14.33;;;;;2.34;72.24;101477.36;112499;244;40150;-52
2024/03/07 00:19:51;;;;;;;;;14.67;12.00;;;;;2.32;72.21;101476.28;112318;242;160895;-52
2024/03/07 00:22:26;;;;;;;;;21.50;14.25;;;;;2.28;72.28;101474.97;112479;244;39383;-53
2024/03/07 00:25:08;;;;;;;;;17.33;12.33;;;;;2.24;72.36;101473.84;112428;242;160787;-53
2024/03/07 00:27:45;;;;;;;;;16.00;12.00;;;;;2.19;72.25;101475.98;112430;244;39922;-49
2024/03/07 00:30:24;;;;;;;;;16.25;11.25;;;;;2.13;72.09;101478.17;112512;244;39591;-49
2024/03/07 00:32:58;;;;;;;;;12.00;9.00;;;;;2.03;72.29;101478.90;112313;242;160732;-49
2024/03/07 00:35:38;;;;;;;;;17.00;12.33;;;;;1.98;72.39;101475.00;112553;244;39753;-49
2024/03/07 00:38:20;;;;;;;;;17.00;13.00;;;;;1.89;72.48;101474.21;112330;242;160589;-49
2024/03/07 00:41:03;;;;;;;;;21.75;16.00;;;;;1.83;72.61;101472.34;112530;244;41235;-51
2024/03/07 00:43:42;;;;;;;;;21.33;14.00;;;;;1.74;72.74;101469.57;112382;242;160767;-52
2024/03/07 00:46:24;;;;;;;;;15.25;11.25;;;;;1.65;73.02;101472.67;112474;244;40102;-51
2024/03/07 00:49:04;;;;;;;;;13.00;10.50;;;;;1.58;73.04;101472.51;112399;242;162438;-53
2024/03/07 00:51:44;;;;;;;;;16.00;11.00;;;;;1.49;73.13;101470.46;112415;244;39632;-49
2024/03/07 00:54:20;;;;;;;;;23.75;15.50;;;;;1.43;73.19;101471.05;112526;244;39067;-50
2024/03/07 00:56:59;;;;;;;;;21.50;14.00;;;;;1.35;73.47;101467.88;112277;242;161457;-50
2024/03/07 00:59:37;;;;;;;;;24.00;15.75;;;;;1.26;73.60;101474.15;112504;244;40795;-49
2024/03/07 01:02:16;;;;;;;;;20.00;13.25;;;;;1.19;73.90;101468.23;112296;242;161474;-50
2024/03/07 01:04:54;;;;;;;;;19.00;13.67;;;;;1.17;74.06;101468.92;112418;244;39636;-50
2024/03/07 01:07:42;;;;;;;;;20.00;15.00;;;;;1.14;74.12;101473.78;112322;242;160774;-51
2024/03/07 01:10:29;;;;;;;;;20.00;14.25;;;;;1.03;74.23;101470.39;112402;244;39873;-51
2024/03/07 01:13:18;;;;;;;;;20.00;14.00;;;;;0.97;74.34;101476.66;112377;242;160857;-49
2024/03/07 01:16:05;;;;;;;;;15.50;11.25;;;;;0.92;74.56;101475.25;112485;244;40344;-50
2024/03/07 01:18:42;;;;;;;;;17.00;11.00;;;;;0.89;74.69;101477.05;112508;244;39025;-50
2024/03/07 01:21:24;;;;;;;;;18.50;14.00;;;;;0.86;74.82;101478.12;112283;242;160505;-50
2024/03/07 01:24:04;;;;;;;;;17.00;12.25;;;;;0.84;75.04;101478.27;112546;244;39676;-50
2024/03/07 01:26:43;;;;;;;;;16.00;12.00;;;;;0.82;75.19;101476.98;112337;242;160640;-53
2024/03/07 01:29:18;;;;;;;;;18.00;13.00;;;;;0.81;75.29;101478.48;112492;244;40818;-53
2024/03/07 01:31:57;;;;;;;;;19.00;14.00;;;;;0.78;75.29;101479.89;112345;244;161782;-50
2024/03/07 01:34:31;;;;;;;;;21.00;15.50;;;;;0.75;75.54;101478.88;112396;244;39377;-50
2024/03/07 01:37:08;;;;;;;;;14.00;11.00;;;;;0.74;75.64;101481.95;112350;244;160714;-52
2024/03/07 01:39:52;;;;;;;;;15.00;11.00;;;;;0.73;75.88;101481.87;112380;244;40465;-52
2024/03/07 01:42:35;;;;;;;;;15.75;12.00;;;;;0.68;75.81;101484.30;112490;244;39468;-53
2024/03/07 01:45:11;;;;;;;;;17.75;13.25;;;;;0.64;76.02;101482.94;112287;242;162068;-53
2024/03/07 01:47:53;;;;;;;;;18.75;14.00;;;;;0.63;76.16;101481.25;112419;244;39837;-50
2024/03/07 01:50:31;;;;;;;;;18.67;13.00;;;;;0.65;76.26;101487.85;112209;241;161381;-49
2024/03/07 01:53:07;;;;;;;;;19.75;13.50;;;;;0.66;76.25;101487.95;112442;244;39983;-49
2024/03/07 01:55:44;;;;;;;;;29.00;18.33;;;;;0.69;76.40;101486.15;112300;242;161475;-49
2024/03/07 01:58:23;;;;;;;;;20.00;14.00;;;;;0.72;76.38;101488.60;112390;244;41361;-53
2024/03/07 02:01:00;;;;;;;;;24.00;17.00;;;;;0.75;76.33;101487.91;112374;241;160690;-50
2024/03/07 02:03:36;;;;;;;;;22.50;15.25;;;;;0.76;76.45;101486.75;112374;244;40142;-49
2024/03/07 02:06:14;;;;;;;;;17.75;13.75;;;;;0.69;76.61;101480.71;112454;244;40131;-52
2024/03/07 02:08:53;;;;;;;;;21.25;13.50;;;;;0.60;76.64;101483.58;112296;242;161271;-53
2024/03/07 02:11:33;;;;;;;;;26.75;17.75;;;;;0.50;76.65;101482.06;112440;244;40793;-49
2024/03/07 02:14:09;;;;;;;;;18.00;12.25;;;;;0.43;76.69;101480.27;112332;241;162059;-49
2024/03/07 02:16:56;;;;;;;;;20.75;15.50;;;;;0.32;76.89;101484.84;112496;244;39687;-52
2024/03/07 02:19:31;;;;;;;;;16.75;12.50;;;;;0.22;77.07;101478.58;112326;242;160956;-53
2024/03/07 02:22:08;;;;;;;;;18.00;14.00;;;;;0.13;77.18;101481.63;112448;244;41030;-52
2024/03/07 02:24:47;;;;;;;;;15.00;12.00;;;;;0.04;77.42;101478.87;112440;244;39803;-53
2024/03/07 02:27:29;;;;;;;;;17.00;12.00;;;;;-0.09;77.49;101478.76;112384;242;40328;-49
2024/03/07 02:30:08;;;;;;;;;13.00;9.00;;;;;-0.13;77.63;101482.02;112545;244;40079;-49
2024/03/07 02:32:51;;;;;;;;;17.00;12.33;;;;;-0.16;77.67;101482.73;112329;241;161899;-52
2024/03/07 02:35:34;;;;;;;;;15.00;12.00;;;;;-0.21;78.01;101480.39;112382;243;39087;-52
2024/03/07 02:38:20;;;;;;;;;21.00;16.00;;;;;-0.23;78.09;101484.60;112288;241;161641;-52
2024/03/07 02:41:04;;;;;;;;;21.75;14.25;;;;;-0.28;78.17;101491.68;112424;244;39583;-50
2024/03/07 02:43:46;;;;;;;;;17.00;13.00;;;;;-0.30;78.30;101490.19;112343;242;161948;-49
2024/03/07 02:46:23;;;;;;;;;16.50;13.00;;;;;-0.35;78.35;101492.29;112372;244;39583;-52
2024/03/07 02:49:08;;;;;;;;;17.00;12.00;;;;;-0.43;78.56;101490.10;112297;241;161694;-53
2024/03/07 02:51:52;;;;;;;;;21.50;13.50;;;;;-0.44;78.82;101492.34;112406;244;39462;-52
2024/03/07 02:54:28;;;;;;;;;21.00;15.75;;;;;-0.47;78.87;101494.40;112546;244;39857;-52
2024/03/07 02:57:08;;;;;;;;;19.00;13.00;;;;;-0.47;78.92;101495.84;112340;242;160889;-52
2024/03/07 02:59:45;;;;;;;;;21.75;13.00;;;;;-0.53;78.85;101497.08;112556;244;39861;-51
2024/03/07 03:02:24;;;;;;;;;21.00;14.00;;;;;-0.64;78.85;101493.33;112363;241;160733;-50
2024/03/07 03:05:09;;;;;;;;;19.00;14.00;;;;;-0.75;79.20;101491.85;112556;244;39741;-49
2024/03/07 03:07:52;;;;;;;;;11.00;8.33;;;;;-0.73;79.45;101491.54;112396;242;161158;-49
2024/03/07 03:10:34;;;;;;;;;14.33;13.00;;;;;-0.76;79.61;101493.81;112447;244;40927;-49
2024/03/07 03:13:09;;;;;;;;;18.67;13.67;;;;;-0.80;79.68;101495.35;112439;241;161608;-52
2024/03/07 03:15:47;;;;;;;;;14.25;11.00;;;;;-0.81;80.32;101498.77;112408;244;39615;-53
2024/03/07 03:18:27;;;;;;;;;18.00;14.00;;;;;-0.82;80.07;101499.88;112517;244;39784;-49
2024/03/07 03:21:07;;;;;;;;;20.00;14.75;;;;;-0.84;80.20;101499.98;112295;242;161704;-49
2024/03/07 03:23:53;;;;;;;;;17.00;12.00;;;;;-0.87;80.42;101501.56;112520;244;40988;-49
2024/03/07 03:26:31;;;;;;;;;18.25;13.50;;;;;-0.83;80.49;101501.00;112314;241;161647;-51
2024/03/07 03:29:11;;;;;;;;;21.00;15.25;;;;;-0.79;80.47;101498.61;112461;244;40348;-52
2024/03/07 03:31:54;;;;;;;;;14.33;11.33;;;;;-0.82;80.47;101498.44;112346;242;161733;-49
2024/03/07 03:34:29;;;;;;;;;17.50;14.00;;;;;-0.86;80.58;101501.37;112379;244;41190;-50
2024/03/07 03:37:03;;;;;;;;;25.00;17.00;;;;;-0.91;80.73;101505.17;112465;241;160770;-52
2024/03/07 03:39:43;;;;;;;;;18.00;13.00;;;;;-0.97;80.85;101507.84;112407;244;39740;-53
2024/03/07 03:42:23;;;;;;;;;13.75;10.50;;;;;-1.01;80.92;101505.23;112565;244;39844;-50
2024/03/07 03:45:06;;;;;;;;;20.00;14.00;;;;;-1.04;81.22;101504.41;112320;242;161163;-49
2024/03/07 03:47:43;;;;;;;;;18.00;12.00;;;;;-1.12;81.15;101508.73;112566;244;39472;-49
2024/03/07 03:50:24;;;;;;;;;18.25;12.25;;;;;-1.17;81.34;101511.66;112364;244;161233;-49
2024/03/07 03:53:03;;;;;;;;;14.67;9.67;;;;;-1.19;81.43;101512.69;112519;244;39826;-53
2024/03/07 03:55:46;;;;;;;;;13.00;8.00;;;;;-1.24;81.61;101512.91;112423;244;160759;-53
2024/03/07 03:58:30;;;;;;;;;10.67;8.33;;;;;-1.26;81.73;101510.06;112429;244;39483;-49
2024/03/07 04:01:13;;;;;;;;;12.75;10.00;;;;;-1.28;81.78;101511.96;112383;241;162847;-51
2024/03/07 04:03:55;;;;;;;;;20.00;13.00;;;;;-1.27;81.88;101510.61;112410;244;39627;-51
2024/03/07 04:06:35;;;;;;;;;19.75;13.75;;;;;-1.28;82.01;101511.91;112378;244;39854;-52
2024/03/07 04:09:18;;;;;;;;;14.00;11.00;;;;;-1.29;82.21;101509.73;112271;242;161673;-52
2024/03/07 04:12:06;;;;;;;;;20.00;13.00;;;;;-1.30;82.36;101512.73;112407;244;39844;-49
2024/03/07 04:15:07;;;;;;;;;17.50;14.00;;;;;-1.27;82.41;101513.14;112266;241;161464;-49
2024/03/07 04:17:42;;;;;;;;;19.00;14.00;;;;;-1.27;82.46;101507.45;112554;244;40026;-54
2024/03/07 04:20:18;;;;;;;;;24.00;17.00;;;;;-1.27;82.42;101508.15;112328;242;161643;-53
2024/03/07 04:22:55;;;;;;;;;21.00;14.00;;;;;-1.28;82.76;101510.68;112486;244;39501;-53
2024/03/07 04:25:31;;;;;;;;;21.50;17.25;;;;;-1.27;82.56;101507.45;112379;241;161607;-53
2024/03/07 04:28:07;;;;;;;;;19.00;14.00;;;;;-1.26;82.61;101508.45;112499;244;40062;-50
2024/03/07 04:30:46;;;;;;;;;19.00;14.00;;;;;-1.30;82.89;101512.06;112594;244;40034;-50
2024/03/07 04:33:20;;;;;;;;;22.00;16.67;;;;;-1.34;82.78;101510.15;112290;242;160692;-52
2024/03/07 04:36:04;;;;;;;;;24.50;17.00;;;;;-1.35;82.79;101511.14;112561;244;41339;-51
2024/03/07 04:38:44;;;;;;;;;19.00;13.00;;;;;-1.37;82.76;101510.50;112293;241;160854;-50
2024/03/07 04:41:18;;;;;;;;;17.00;11.00;;;;;-1.39;82.86;101512.76;112512;244;39914;-50
2024/03/07 04:43:57;;;;;;;;;18.67;13.00;;;;;-1.44;83.00;101514.11;112346;242;160546;-49
2024/03/07 04:46:33;;;;;;;;;14.00;10.00;;;;;-1.51;83.25;101510.81;112435;244;40226;-49
2024/03/07 04:49:09;;;;;;;;;14.00;11.00;;;;;-1.59;83.23;101508.97;112382;241;161116;-49
2024/03/07 04:51:51;;;;;;;;;24.00;15.00;;;;;-1.68;83.44;101506.06;112394;244;39874;-52
2024/03/07 04:54:28;;;;;;;;;16.75;13.00;;;;;-1.70;83.60;101511.00;112395;244;40903;-53
2024/03/07 04:57:11;;;;;;;;;22.00;16.00;;;;;-1.72;83.52;101508.45;112289;242;161759;-49
2024/03/07 04:59:50;;;;;;;;;20.75;14.00;;;;;-1.72;83.63;101513.70;112491;244;39654;-49
2024/03/07 05:02:26;;;;;;;;;31.00;23.00;;;;;-1.72;83.84;101515.68;112331;241;161603;-53
2024/03/07 05:05:08;;;;;;;;;21.00;16.00;;;;;-1.71;83.95;101515.77;112467;244;40344;-52
2024/03/07 05:07:47;;;;;;;;;30.00;22.00;;;;;-1.67;83.95;101517.67;112369;242;161943;-50
2024/03/07 05:10:29;;;;;;;;;29.00;21.00;;;;;-1.62;84.25;101520.23;112446;244;40384;-50
2024/03/07 05:13:17;;;;;;;;;23.00;16.33;;;;;-1.61;84.14;101521.39;112359;241;161536;-50
2024/03/07 05:15:54;;;;;;;;;24.67;17.33;;;;;-1.57;84.09;101522.75;112469;244;39700;-51
2024/03/07 05:18:29;;;;;;;;;18.25;14.00;;;;;-1.55;84.29;101520.90;112430;244;39190;-50
2024/03/07 05:24:04;;;;;;;;;20.00;13.25;;;;;-1.41;84.17;101532.09;112539;244;39671;-54
2024/03/07 05:26:42;;;;;;;;;13.50;10.75;;;;;-1.36;84.07;101533.41;112376;241;160571;-54
2024/03/07 05:29:22;;;;;;;;;17.00;13.00;;;;;-1.31;84.03;101539.33;112509;244;39480;-53
2024/03/07 05:32:23;;;;;;;;;19.00;14.00;;;;;-1.29;84.05;101541.50;112391;242;160854;-53
2024/03/07 05:35:00;;;;;;;;;19.00;13.00;;;;;-1.31;84.17;101544.11;112487;244;39440;-54
2024/03/07 05:37:46;;;;;;;;;17.50;12.00;;;;;-1.32;84.33;101546.44;112357;243;161092;-53
2024/03/07 05:40:23;;;;;;;;;24.25;15.00;;;;;-1.31;84.22;101546.56;112432;244;39380;-53
2024/03/07 05:43:01;;;;;;;;;11.50;8.25;;;;;-1.26;84.11;101548.02;112472;244;40061;-53
2024/03/07 05:45:36;;;;;;;;;14.50;10.25;;;;;-1.23;84.18;101549.10;112476;244;40027;-52
2024/03/07 05:48:21;;;;;;;;;17.00;12.25;;;;;-1.19;84.08;101552.07;112443;244;40633;-52
2024/03/07 05:50:58;;;;;;;;;24.25;18.25;;;;;-1.13;84.15;101553.51;112239;242;161504;-51
2024/03/07 05:53:35;;;;;;;;;20.00;15.00;;;;;-1.03;84.27;101551.17;112505;244;39490;-50
2024/03/07 05:56:10;;;;;;;;;23.00;16.00;;;;;-0.82;84.18;101551.86;112310;241;161914;-51
2024/03/07 05:58:51;;;;;;;;;21.00;16.00;;;;;-0.62;84.15;101551.59;112481;244;39195;-50
2024/03/07 06:01:34;;;;;;;;;23.00;17.00;;;;;-0.49;84.03;101549.04;112387;242;161943;-53
2024/03/07 06:04:12;;;;;;;;;23.00;17.00;;;;;-0.33;83.90;101550.75;112490;244;39674;-53
2024/03/07 06:06:50;;;;;;;;;24.50;18.00;;;;;-0.11;83.81;101550.06;112575;244;39451;-53
2024/03/07 06:09:31;;;;;;;;;24.00;16.00;;;;;1.02;84.06;101547.59;112366;241;161046;-53
2024/03/07 06:12:08;;;;;;;;;24.00;18.75;;;;;2.39;83.50;101548.27;112561;244;39857;-50
2024/03/07 06:14:50;;;;;;;;;22.00;17.50;;;;;3.32;82.48;101544.45;112335;242;160776;-50
2024/03/07 06:17:29;;;;;;;;;26.00;17.00;;;;;3.55;81.24;101542.84;112412;244;40840;-51
2024/03/07 06:20:22;;;;;;;;;21.67;16.00;;;;;3.27;79.87;101543.20;112267;241;160927;-50
2024/03/07 06:23:05;;;;;;;;;23.50;16.50;;;;;2.75;77.77;101547.59;112471;244;40737;-50
2024/03/07 06:25:50;;;;;;;;;23.50;16.00;;;;;2.40;78.29;101545.73;112310;242;161185;-50
2024/03/07 06:28:29;;;;;;;;;18.75;14.75;;;;;2.21;77.86;101549.75;112365;244;39560;-53
2024/03/07 06:31:07;;;;;;;;;23.00;16.00;;;;;2.37;78.00;101551.63;112466;244;39202;-50
2024/03/07 06:33:42;;;;;;;;;20.00;16.00;;;;;2.51;78.05;101553.98;112386;244;39002;-50
2024/03/07 06:36:21;;;;;;;;;26.50;18.00;;;;;2.93;77.77;101552.86;112453;244;39710;-50
2024/03/07 06:39:04;;;;;;;;;31.00;23.00;;;;;3.15;77.69;101554.97;111800;242;629307;-50
2024/03/07 06:41:42;;;;;;;;;28.50;23.00;;;;;3.68;77.40;101551.84;112469;244;41094;-53
2024/03/07 06:44:23;;;;;;;;;21.50;17.00;;;;;3.65;76.33;101551.15;112295;242;161135;-53
2024/03/07 06:47:00;;;;;;;;;27.00;20.75;;;;;4.08;75.94;101550.25;112542;244;39439;-50
2024/03/07 06:49:40;;;;;;;;;20.50;16.25;;;;;4.62;75.07;101545.62;112386;241;161004;-51
2024/03/07 06:52:20;;;;;;;;;26.25;19.75;;;;;5.69;74.92;101543.06;112456;244;40494;-50
2024/03/07 06:54:58;;;;;;;;;25.00;19.00;;;;;6.13;73.98;101544.65;112576;244;39135;-50
2024/03/07 06:57:34;;;;;;;;;24.75;18.75;;;;;5.96;72.91;101541.90;112445;242;161330;-51
2024/03/07 07:00:11;;;;;;;;;26.00;17.25;;;;;6.30;71.55;101545.08;112455;244;38963;-49
2024/03/07 07:02:52;;;;;;;;;21.75;15.50;;;;;6.54;70.47;101545.67;112341;242;160230;-53
2024/03/07 07:05:30;;;;;;;;;19.50;15.25;;;;;6.43;69.82;101543.23;112511;243;39776;-53
2024/03/07 07:08:15;;;;;;;;;24.25;20.00;;;;;6.31;69.66;101545.05;112337;242;161957;-49
2024/03/07 07:10:54;;;;;;;;;22.00;16.00;;;;;5.72;67.42;101549.59;112519;244;40353;-51
2024/03/07 07:13:31;;;;;;;;;23.25;17.75;;;;;5.21;68.73;101551.78;112273;241;160929;-53
2024/03/07 07:16:09;;;;;;;;;25.00;18.00;;;;;5.30;68.04;101555.33;112481;244;39788;-51
2024/03/07 07:18:45;;;;;;;;;21.00;17.00;;;;;5.26;67.44;101554.27;112465;244;39962;-48
2024/03/07 07:21:26;;;;;;;;;21.00;15.00;;;;;5.27;66.32;101558.77;112314;242;160964;-50
2024/03/07 07:24:07;;;;;;;;;25.75;20.00;;;;;5.42;67.14;101555.56;112506;244;40539;-50
2024/03/07 07:26:41;;;;;;;;;28.00;22.50;;;;;5.97;67.21;101558.08;112318;241;161104;-50
2024/03/07 07:29:19;;;;;;;;;22.50;15.75;;;;;5.57;67.16;101554.31;112467;244;41272;-50
2024/03/07 07:31:57;;;;;;;;;26.00;20.00;;;;;5.67;67.39;101551.66;112326;242;160906;-51
2024/03/07 07:34:42;;;;;;;;;21.75;15.00;;;;;5.72;66.13;101556.80;112438;244;39330;-51
2024/03/07 07:37:20;;;;;;;;;26.25;19.00;;;;;5.93;64.44;101550.48;112406;241;161203;-51
2024/03/07 07:39:55;;;;;;;;;21.00;15.00;;;;;6.19;64.23;101555.20;112408;244;40182;-51
2024/03/07 07:42:31;;;;;;;;;21.33;16.67;;;;;7.15;66.03;101549.99;112589;244;39370;-53
2024/03/07 07:45:12;;;;;;;;;20.33;15.00;;;;;8.28;64.97;101545.84;112313;242;161846;-53
2024/03/07 07:47:55;;;;;;;;;19.50;14.50;;;;;8.92;64.84;101545.62;112579;244;40252;-50
2024/03/07 07:50:36;;;;;;;;;24.75;21.00;;;;;9.82;63.84;101545.57;112344;241;160897;-50
2024/03/07 07:53:16;;;;;;;;;23.00;18.00;;;;;10.38;60.53;101545.42;112637;244;40882;-53
2024/03/07 07:55:57;;;;;;;;;23.00;17.00;;;;;10.28;59.82;101547.45;112465;242;161868;-51
2024/03/07 07:58:42;;;;;;;;;24.00;17.00;;;;;10.71;57.14;101546.23;112451;244;39728;-51
2024/03/07 08:01:22;;;;;;;;;18.00;13.50;;;;;11.88;56.73;101543.66;112453;241;161414;-51
2024/03/07 08:04:01;;;;;;;;;17.50;13.00;;;;;12.39;52.69;101543.48;112416;244;39108;-51
2024/03/07 08:06:40;;;;;;;;;18.50;15.00;;;;;12.91;52.58;101533.35;112553;244;39920;-49
2024/03/07 08:09:22;;;;;;;;;25.25;21.00;;;;;13.41;52.04;101534.17;112266;242;161143;-51
2024/03/07 08:11:57;;;;;;;;;26.75;22.00;;;;;13.75;49.91;101534.83;112559;244;39305;-50
2024/03/07 08:14:32;;;;;;;;;40.25;30.00;;;;;14.28;49.20;101536.04;112327;241;161292;-50
2024/03/07 08:17:12;;;;;;;;;23.33;19.33;;;;;14.62;46.54;101535.48;112537;244;40425;-50
2024/03/07 08:19:51;;;;;;;;;21.75;17.75;;;;;14.72;47.40;101526.80;112354;244;161438;-49
2024/03/07 08:22:27;;;;;;;;;21.00;18.00;;;;;15.00;47.20;101526.87;112456;244;39844;-53
2024/03/07 08:25:08;;;;;;;;;28.50;22.00;;;;;15.28;45.69;101530.93;112532;244;40261;-53
2024/03/07 08:27:55;;;;;;;;;34.00;26.50;;;;;14.92;47.14;101531.04;112447;244;39931;-53
2024/03/07 08:30:32;;;;;;;;;20.50;15.50;;;;;15.31;44.09;101528.91;112560;244;40119;-53
2024/03/07 08:33:09;;;;;;;;;24.67;19.67;;;;;15.49;43.97;101529.28;112349;241;164702;-50
2024/03/07 08:35:46;;;;;;;;;23.00;17.00;;;;;15.16;43.13;101531.62;112576;244;40074;-50
2024/03/07 08:38:27;;;;;;;;;24.00;19.00;;;;;14.89;43.01;101531.24;112359;242;161215;-53
2024/03/07 08:41:04;;;;;;;;;29.75;23.50;;;;;14.87;44.35;101525.31;112452;244;40643;-49
2024/03/07 08:43:45;;;;;;;;;27.75;20.50;;;;;14.86;44.36;101531.07;112356;242;161595;-50
2024/03/07 08:46:23;;;;;;;;;22.25;16.75;;;;;14.36;42.56;101535.27;112461;245;40700;-49
2024/03/07 08:49:05;;;;;;;;;25.00;20.00;;;;;13.30;41.65;101533.52;112445;244;39761;-50
2024/03/07 08:51:41;;;;;;;;;16.50;14.00;;;;;13.37;41.59;101533.09;112414;245;39690;-50
2024/03/07 08:54:20;;;;;;;;;19.00;16.00;;;;;12.83;40.16;101533.63;112371;244;41258;-50
2024/03/07 08:57:02;;;;;;;;;21.00;18.00;;;;;12.74;41.65;101536.48;112284;241;161528;-50
2024/03/07 08:59:37;;;;;;;;;22.00;17.33;;;;;12.40;41.48;101539.05;112478;244;38950;-50
2024/03/07 09:02:12;;;;;;;;;16.00;13.00;;;;;12.47;42.51;101533.65;112288;242;161125;-52
2024/03/07 09:04:47;;;;;;;;;23.00;17.00;;;;;12.28;41.94;101533.42;112464;244;39519;-52
2024/03/07 09:07:29;;;;;;;;;24.00;19.00;;;;;12.32;41.49;101527.02;112471;242;161660;-50
2024/03/07 09:10:12;;;;;;;;;17.00;14.00;;;;;12.01;41.91;101534.52;112463;244;39628;-50
2024/03/07 09:12:48;;;;;;;;;17.75;14.00;;;;;11.94;42.00;101528.57;112618;244;39806;-54
2024/03/07 09:15:24;;;;;;;;;16.00;13.00;;;;;11.88;41.29;101534.89;112335;242;161683;-54
2024/03/07 09:17:58;;;;;;;;;14.33;10.33;;;;;11.75;41.78;101533.31;112602;244;41348;-50
2024/03/07 09:20:36;;;;;;;;;15.25;11.75;;;;;11.65;42.61;101526.73;112414;241;161326;-62
2024/03/07 09:23:23;;;;;;;;;18.00;13.00;;;;;11.82;42.92;101532.86;112893;243;39793;-51
2024/03/07 09:25:59;;;;;;;;;15.67;12.00;;;;;11.74;41.57;101525.96;112734;242;161593;-53
2024/03/07 09:28:36;;;;;;;;;14.33;12.33;;;;;11.31;41.79;101525.81;112500;244;40331;-53
2024/03/07 09:31:13;;;;;;;;;19.75;15.50;;;;;11.53;42.18;101522.75;112522;244;40694;-53
2024/03/07 09:33:58;;;;;;;;;18.50;15.00;;;;;11.86;42.28;101522.15;112441;244;40447;-53
2024/03/07 09:36:35;;;;;;;;;14.00;12.00;;;;;12.05;42.11;101522.36;112554;244;39525;-51
2024/03/07 09:39:14;;;;;;;;;10.00;8.25;;;;;12.09;40.44;101530.71;112265;241;161134;-50
2024/03/07 09:41:54;;;;;;;;;13.75;11.00;;;;;12.03;40.15;101521.85;112494;244;39373;-53
2024/03/07 09:44:39;;;;;;;;;17.00;14.00;;;;;12.33;40.16;101520.23;112336;241;160937;-54
2024/03/07 09:47:18;;;;;;;;;16.00;14.00;;;;;12.27;39.93;101520.14;112491;244;41387;-52
2024/03/07 09:49:55;;;;;;;;;16.00;13.00;;;;;12.35;39.72;101513.44;112341;241;161824;-51
2024/03/07 09:52:39;;;;;;;;;22.67;16.67;;;;;12.38;39.14;101517.04;112449;244;39295;-51
2024/03/07 09:55:17;;;;;;;;;15.00;12.00;;;;;12.20;39.54;101515.83;112484;244;39918;-50
2024/03/07 09:57:55;;;;;;;;;19.50;15.75;;;;;11.84;39.41;101524.18;112380;244;38971;-50
2024/03/07 10:00:30;;;;;;;;;15.25;12.00;;;;;11.55;39.46;101526.44;112464;244;39746;-50
2024/03/07 10:03:14;;;;;;;;;14.50;11.50;;;;;11.05;40.18;101521.29;112312;242;161068;-49
2024/03/07 10:05:52;;;;;;;;;14.00;10.00;;;;;10.96;40.46;101522.45;112487;244;40330;-50
2024/03/07 10:08:31;;;;;;;;;13.75;11.00;;;;;10.43;40.22;101522.50;112297;243;161279;-54
2024/03/07 10:11:11;;;;;;;;;20.00;14.25;;;;;9.72;41.05;101519.95;112422;244;39686;-52
2024/03/07 10:13:49;;;;;;;;;20.00;14.00;;;;;9.04;41.49;101521.10;112368;241;160923;-53
2024/03/07 10:16:37;;;;;;;;;13.33;11.00;;;;;8.67;42.19;101520.50;112481;243;39942;-50
2024/03/07 10:19:21;;;;;;;;;18.00;13.33;;;;;8.32;42.36;101518.17;112408;244;39992;-50
2024/03/07 10:22:01;;;;;;;;;16.00;12.00;;;;;7.88;42.59;101532.95;112399;244;40536;-52
2024/03/07 10:24:45;;;;;;;;;16.00;12.33;;;;;7.49;42.90;101528.95;112408;244;40250;-52
2024/03/07 10:27:22;;;;;;;;;13.67;10.00;;;;;7.06;43.60;101526.99;112318;242;161070;-51
2024/03/07 10:30:01;;;;;;;;;8.00;6.00;;;;;6.96;43.98;101528.27;112457;244;40045;-50
2024/03/07 10:32:51;;;;;;;;;10.00;8.00;;;;;6.80;44.55;101527.10;112311;241;160591;-53
2024/03/07 10:35:30;;;;;;;;;8.00;6.00;;;;;6.58;44.71;101523.90;112426;244;39831;-53
2024/03/07 10:38:07;;;;;;;;;11.75;8.75;;;;;6.51;45.20;101522.34;112293;242;160299;-50
2024/03/07 10:40:43;;;;;;;;;8.50;6.25;;;;;6.55;45.80;101516.42;112381;244;40305;-50
2024/03/07 10:43:20;;;;;;;;;10.00;8.00;;;;;6.72;45.85;101527.95;112439;244;40987;-52
2024/03/07 10:45:58;;;;;;;;;7.50;5.25;;;;;6.65;45.71;101519.67;112414;244;39847;-51
2024/03/07 10:48:39;;;;;;;;;11.00;7.75;;;;;6.63;45.71;101522.52;112538;244;39757;-49
2024/03/07 10:51:25;;;;;;;;;15.50;11.25;;;;;6.57;46.14;101516.98;112311;241;160864;-52
2024/03/07 10:54:14;;;;;;;;;10.00;8.00;;;;;6.49;46.17;101520.51;112511;244;40132;-52
2024/03/07 10:57:05;;;;;;;;;13.50;10.50;;;;;6.32;46.27;101519.92;112324;241;160712;-50
2024/03/07 10:59:52;;;;;;;;;11.00;9.00;;;;;6.23;46.53;101518.02;112481;244;39737;-50
2024/03/07 11:02:47;;;;;;;;;10.00;8.00;;;;;6.27;46.81;101515.50;112357;242;161167;-52
2024/03/07 11:05:29;;;;;;;;;11.00;9.00;;;;;6.19;46.81;101510.35;112499;244;40167;-53
2024/03/07 11:08:12;;;;;;;;;8.00;6.00;;;;;6.24;47.02;101508.13;112417;241;160791;-51
2024/03/07 11:10:54;;;;;;;;;11.33;8.00;;;;;6.25;47.11;101506.02;112460;244;40275;-50
2024/03/07 11:13:31;;;;;;;;;11.00;9.00;;;;;6.28;47.34;101504.52;112313;242;160426;-50
2024/03/07 11:16:09;;;;;;;;;10.25;8.25;;;;;6.31;47.53;101506.59;112507;244;41307;-53
2024/03/07 11:19:05;;;;;;;;;7.75;7.00;;;;;6.27;46.90;101510.67;112520;244;40199;-53
2024/03/07 11:21:52;;;;;;;;;10.00;7.00;;;;;6.17;47.50;101505.48;112289;241;160212;-50
2024/03/07 11:24:34;;;;;;;;;7.00;5.00;;;;;6.19;47.61;101504.04;112464;244;39510;-50
2024/03/07 11:27:22;;;;;;;;;11.00;8.00;;;;;6.27;47.80;101494.06;112313;242;161540;-53
2024/03/07 11:30:11;;;;;;;;;6.75;5.00;;;;;6.32;47.68;101494.65;112532;244;39454;-54
2024/03/07 11:32:53;;;;;;;;;11.50;8.00;;;;;6.22;47.32;101494.17;112307;241;160534;-52
2024/03/07 11:35:40;;;;;;;;;8.00;6.00;;;;;6.05;47.53;101494.44;112451;244;41017;-51
2024/03/07 11:38:23;;;;;;;;;9.25;7.00;;;;;6.05;47.75;101492.60;112373;242;160316;-50
2024/03/07 11:41:12;;;;;;;;;13.00;10.00;;;;;6.09;47.96;101491.36;112488;244;40039;-49
2024/03/07 11:43:56;;;;;;;;;10.33;8.33;;;;;6.06;48.45;101490.73;112258;245;161218;-50
2024/03/07 11:46:34;;;;;;;;;14.33;9.67;;;;;6.11;48.59;101484.95;112521;244;41152;-52
2024/03/07 11:49:16;;;;;;;;;11.75;8.50;;;;;6.16;48.84;101486.67;112539;244;39492;-53
2024/03/07 11:51:55;;;;;;;;;11.00;9.00;;;;;6.22;48.81;101476.27;112482;244;39666;-50
2024/03/07 11:54:30;;;;;;;;;10.00;8.50;;;;;6.20;48.74;101482.39;112651;244;40273;-49
2024/03/07 11:57:12;;;;;;;;;12.00;10.00;;;;;6.12;48.62;101484.48;112382;242;160671;-49
2024/03/07 11:59:57;;;;;;;;;11.00;8.00;;;;;6.13;48.47;101472.62;112527;244;38984;-49
2024/03/07 12:02:33;;;;;;;;;11.33;8.33;;;;;6.14;48.80;101468.77;112393;242;160206;-53
2024/03/07 12:05:16;;;;;;;;;17.00;13.00;;;;;6.09;48.58;101472.63;112481;244;40570;-52
2024/03/07 12:07:54;;;;;;;;;10.00;8.00;;;;;6.05;48.73;101463.27;112431;241;161015;-51
2024/03/07 12:10:31;;;;;;;;;9.00;8.00;;;;;6.11;48.48;101467.94;112449;244;40196;-50
2024/03/07 12:13:06;;;;;;;;;8.50;7.25;;;;;6.11;48.43;101464.39;112537;244;40811;-51